Time;durP1;ratioP1;P1;durP2;ratioP2;P2;SDS_P1;SDS_P2;PMS_P1;PMS_P2;Temp;Humidity;BMP_temperature;BMP_pressure;BME280_temperature;BME280_humidity;BME280_pressure;Samples;Min_cycle;Max_cycle;Signal;HPM_P1;HPM_P2
2022/08/08 00:02:56;;;;;;;6.95;4.72;;;13.50;99.90;;;;;;5071094;28;20035;-85
2022/08/08 00:06:04;;;;;;;7.53;4.97;;;13.50;99.90;;;;;;5056824;28;20542;-85
2022/08/08 00:09:00;;;;;;;7.28;4.82;;;13.50;99.90;;;;;;5070279;28;20144;-85
2022/08/08 00:11:57;;;;;;;11.25;5.30;;;13.50;99.90;;;;;;5062695;28;20151;-85
2022/08/08 00:15:07;;;;;;;10.95;5.45;;;13.40;99.90;;;;;;5047737;28;20467;-85
2022/08/08 00:17:56;;;;;;;9.15;4.57;;;13.40;99.90;;;;;;5071946;28;20571;-86
2022/08/08 00:20:50;;;;;;;8.68;4.68;;;13.40;99.90;;;;;;5071624;28;20040;-83
2022/08/08 00:23:44;;;;;;;7.72;4.07;;;13.30;99.90;;;;;;5071844;28;20043;-84
2022/08/08 00:26:37;;;;;;;8.68;4.28;;;13.30;99.90;;;;;;5072136;28;20116;-84
2022/08/08 00:29:28;;;;;;;8.38;5.03;;;13.30;99.90;;;;;;5072171;28;20039;-84
2022/08/08 00:32:30;;;;;;;7.68;4.43;;;13.30;99.90;;;;;;5063901;28;20098;-83
2022/08/08 00:35:45;;;;;;;6.45;4.55;;;13.30;99.90;;;;;;5057375;28;20036;-83
2022/08/08 00:39:05;;;;;;;7.75;4.85;;;13.30;99.90;;;;;;5072131;28;20035;-83
2022/08/08 00:42:07;;;;;;;7.55;4.38;;;13.20;99.90;;;;;;5057402;28;20031;-83
2022/08/08 00:45:36;;;;;;;6.32;4.85;;;13.20;99.90;;;;;;5071365;28;20043;-84
2022/08/08 00:48:20;;;;;;;5.28;4.10;;;13.20;99.90;;;;;;5071039;28;20036;-85
2022/08/08 00:51:07;;;;;;;7.15;4.10;;;13.10;99.90;;;;;;5061448;28;20075;-84
2022/08/08 00:54:20;;;;;;;8.07;3.70;;;13.10;99.90;;;;;;5055897;28;20047;-84
2022/08/08 00:57:41;;;;;;;6.57;4.03;;;13.10;99.90;;;;;;5071834;28;20039;-83
2022/08/08 01:00:28;;;;;;;7.35;4.90;;;13.10;99.90;;;;;;5071735;28;20067;-83
2022/08/08 01:03:50;;;;;;;8.73;4.30;;;13.00;99.90;;;;;;5072079;28;20531;-83
2022/08/08 01:07:11;;;;;;;5.65;4.13;;;13.10;99.90;;;;;;5053611;28;20381;-83
2022/08/08 01:10:08;;;;;;;7.47;3.78;;;13.00;99.90;;;;;;5053225;28;20035;-83
2022/08/08 01:12:56;;;;;;;5.53;4.13;;;13.00;99.90;;;;;;5071314;28;20416;-84
2022/08/08 01:15:55;;;;;;;7.68;4.10;;;13.00;99.90;;;;;;5071261;28;20082;-88
2022/08/08 01:19:05;;;;;;;7.93;4.40;;;13.60;99.90;;;;;;5071632;28;20131;-86
2022/08/08 01:22:18;;;;;;;10.50;4.43;;;12.90;99.90;;;;;;5053071;28;20027;-85
2022/08/08 01:25:20;;;;;;;5.53;3.80;;;12.90;99.90;;;;;;5066167;28;20063;-85
2022/08/08 01:28:26;;;;;;;5.18;3.78;;;12.90;99.90;;;;;;5074874;28;20038;-85
2022/08/08 01:31:48;;;;;;;6.25;3.47;;;12.90;99.90;;;;;;5060423;28;20110;-85
2022/08/08 01:34:47;;;;;;;8.25;5.03;;;12.90;99.90;;;;;;5062592;28;20051;-85
2022/08/08 01:38:17;;;;;;;4.75;3.58;;;12.80;99.90;;;;;;5065152;28;20071;-85
2022/08/08 01:41:27;;;;;;;5.72;3.80;;;12.80;99.90;;;;;;5056362;28;20392;-85
2022/08/08 01:44:31;;;;;;;5.68;3.70;;;12.80;99.90;;;;;;5075265;28;20111;-85
2022/08/08 01:47:48;;;;;;;4.88;3.92;;;12.80;99.90;;;;;;5075206;28;20077;-85
2022/08/08 01:50:51;;;;;;;3.92;3.13;;;12.80;99.90;;;;;;5073850;28;20035;-85
2022/08/08 01:53:38;;;;;;;7.82;3.80;;;12.80;99.90;;;;;;5058185;28;20500;-84
2022/08/08 01:56:41;;;;;;;6.03;4.38;;;12.70;99.90;;;;;;5066243;28;20048;-85
2022/08/08 01:59:54;;;;;;;6.78;3.97;;;12.70;99.90;;;;;;5066516;28;20071;-85
2022/08/08 02:03:08;;;;;;;6.60;3.90;;;12.70;99.90;;;;;;5054833;28;20036;-85
2022/08/08 02:05:58;;;;;;;9.18;4.70;;;12.70;99.90;;;;;;5073689;28;20111;-85
2022/08/08 02:08:49;;;;;;;7.50;4.03;;;12.60;99.90;;;;;;5059444;28;20563;-85
2022/08/08 02:11:45;;;;;;;5.60;3.47;;;12.80;99.90;;;;;;5064041;28;20520;-85
2022/08/08 02:14:53;;;;;;;9.07;4.25;;;12.70;99.90;;;;;;5063156;28;20131;-84
2022/08/08 02:17:46;;;;;;;7.50;3.75;;;12.60;99.90;;;;;;5054492;28;20516;-86
2022/08/08 02:24:13;;;;;;;6.85;3.50;;;12.50;99.90;;;;;;5047899;28;20409;-84
2022/08/08 02:27:02;;;;;;;6.78;3.72;;;12.50;99.90;;;;;;5043935;28;20056;-84
2022/08/08 02:30:15;;;;;;;6.05;4.28;;;12.50;99.90;;;;;;5040641;28;20458;-84
2022/08/08 02:33:23;;;;;;;6.30;4.18;;;12.50;99.90;;;;;;5053473;28;20082;-83
2022/08/08 02:36:33;;;;;;;9.25;4.53;;;12.50;99.90;;;;;;5053576;28;20122;-83
2022/08/08 02:39:38;;;;;;;7.10;3.75;;;12.40;99.90;;;;;;5052556;28;20546;-84
2022/08/08 02:42:32;;;;;;;8.15;4.10;;;12.40;99.90;;;;;;5054245;28;20454;-83
2022/08/08 02:45:34;;;;;;;5.53;4.03;;;12.50;99.90;;;;;;5041261;28;20044;-83
2022/08/08 02:48:56;;;;;;;8.90;4.22;;;12.40;99.90;;;;;;5049803;28;20532;-83
2022/08/08 02:51:59;;;;;;;7.40;4.20;;;12.40;99.90;;;;;;5047936;28;20485;-83
2022/08/08 02:55:07;;;;;;;6.43;4.53;;;12.40;99.90;;;;;;5034480;28;20052;-83
2022/08/08 02:58:33;;;;;;;7.57;4.57;;;12.40;99.90;;;;;;5053918;28;20063;-83
2022/08/08 03:01:30;;;;;;;8.30;4.55;;;12.40;99.90;;;;;;5053291;28;20087;-83
2022/08/08 03:04:55;;;;;;;10.27;5.22;;;12.30;99.90;;;;;;5042372;28;20237;-83
2022/08/08 03:07:42;;;;;;;8.43;4.57;;;12.30;99.90;;;;;;5042940;28;20036;-83
2022/08/08 03:11:24;;;;;;;6.53;4.30;;;12.30;99.90;;;;;;5053140;28;20095;-83
2022/08/08 03:14:32;;;;;;;8.60;3.90;;;12.30;99.90;;;;;;5031037;28;20091;-83
2022/08/08 03:17:17;;;;;;;7.00;3.72;;;;;;;;;;5030800;28;20821;-83
2022/08/08 03:20:04;;;;;;;5.10;3.70;;;12.20;99.90;;;;;;5052921;28;20048;-84
2022/08/08 03:22:51;;;;;;;4.95;4.00;;;12.30;99.90;;;;;;5040106;28;20411;-83
2022/08/08 03:25:37;;;;;;;4.70;3.63;;;12.20;99.90;;;;;;5053132;28;20036;-83
2022/08/08 03:28:50;;;;;;;5.90;3.70;;;12.10;99.90;;;;;;5052936;28;20094;-83
2022/08/08 03:34:38;;;;;;;5.30;3.90;;;12.20;99.90;;;;;;5039697;28;20099;-83
2022/08/08 03:37:23;;;;;;;7.20;3.92;;;12.20;99.90;;;;;;5052500;28;20055;-83
2022/08/08 03:40:07;;;;;;;5.38;3.60;;;12.60;99.90;;;;;;5052545;28;20109;-83
2022/08/08 03:42:52;;;;;;;9.73;4.03;;;;;;;;;;5052760;28;20076;-83
2022/08/08 03:45:37;;;;;;;6.82;3.92;;;12.20;99.90;;;;;;5052956;28;20141;-83
2022/08/08 03:48:21;;;;;;;7.13;4.55;;;12.00;99.90;;;;;;5039730;28;20040;-83
2022/08/08 03:51:06;;;;;;;8.38;4.20;;;12.30;99.90;;;;;;5050369;28;20060;-84
2022/08/08 03:53:54;;;;;;;8.65;4.70;;;12.30;99.90;;;;;;5052739;28;20094;-84
2022/08/08 03:56:38;;;;;;;7.55;4.32;;;12.30;99.90;;;;;;5052587;28;20039;-84
2022/08/08 03:59:29;;;;;;;7.82;4.63;;;12.30;99.90;;;;;;5052176;28;20094;-84
2022/08/08 04:02:17;;;;;;;8.98;4.53;;;12.30;99.90;;;;;;5051388;28;20082;-84
2022/08/08 04:05:05;;;;;;;6.38;4.18;;;12.40;99.90;;;;;;5052504;28;20071;-84
2022/08/08 04:07:50;;;;;;;8.35;4.82;;;;;;;;;;5052566;28;20035;-84
2022/08/08 04:10:37;;;;;;;6.90;4.45;;;12.40;99.90;;;;;;5052380;28;20087;-84
2022/08/08 04:13:21;;;;;;;8.15;4.70;;;;;;;;;;5050820;28;20413;-84
2022/08/08 04:16:05;;;;;;;8.82;4.63;;;12.40;99.90;;;;;;5052439;28;20044;-86
2022/08/08 04:18:50;;;;;;;9.10;4.80;;;12.40;99.90;;;;;;5052629;28;20055;-83
2022/08/08 04:21:35;;;;;;;6.90;4.68;;;12.30;99.90;;;;;;5052580;28;20444;-83
2022/08/08 04:24:20;;;;;;;7.10;4.80;;;12.30;99.90;;;;;;5046494;28;20581;-83
2022/08/08 04:27:05;;;;;;;9.27;4.80;;;;;;;;;;5046432;28;20039;-86
2022/08/08 04:29:50;;;;;;;6.65;4.50;;;12.30;99.90;;;;;;5052482;28;20052;-83
2022/08/08 04:32:34;;;;;;;12.07;4.78;;;12.40;99.90;;;;;;5052314;28;20496;-82
2022/08/08 04:35:18;;;;;;;8.30;4.72;;;12.30;99.90;;;;;;5051833;28;20086;-83
2022/08/08 04:38:03;;;;;;;8.75;5.20;;;;;;;;;;5051560;28;20128;-83
2022/08/08 04:40:48;;;;;;;6.68;5.00;;;12.40;99.90;;;;;;5052233;28;20036;-83
2022/08/08 04:43:32;;;;;;;7.38;4.97;;;12.30;99.90;;;;;;5052016;28;20056;-83
2022/08/08 04:46:16;;;;;;;9.07;4.80;;;12.60;99.90;;;;;;5051757;28;20087;-83
2022/08/08 04:49:01;;;;;;;10.07;5.18;;;;;;;;;;5052024;28;20040;-83
2022/08/08 04:51:45;;;;;;;8.95;5.18;;;;;;;;;;5051183;28;20126;-83
2022/08/08 04:54:29;;;;;;;10.93;5.25;;;12.30;99.90;;;;;;5051680;28;20543;-82
2022/08/08 04:57:14;;;;;;;7.55;5.00;;;;;;;;;;5041607;28;20051;-89
2022/08/08 04:59:58;;;;;;;8.75;5.15;;;12.50;99.90;;;;;;5052198;28;20059;-81
2022/08/08 05:02:43;;;;;;;8.48;5.57;;;;;;;;;;5058825;28;20047;-80
2022/08/08 05:05:27;;;;;;;8.43;5.53;;;;;;;;;;5043472;28;20112;-81
2022/08/08 05:08:12;;;;;;;10.02;5.60;;;12.20;99.90;;;;;;5054368;28;20044;-81
2022/08/08 05:10:57;;;;;;;11.48;6.22;;;12.50;99.90;;;;;;5054623;28;20409;-81
2022/08/08 05:13:42;;;;;;;9.63;5.50;;;12.60;99.90;;;;;;5056033;28;20048;-82
2022/08/08 05:16:26;;;;;;;8.55;6.15;;;12.60;99.90;;;;;;5047475;28;20049;-82
2022/08/08 05:19:11;;;;;;;13.73;6.38;;;12.70;99.90;;;;;;5047867;28;20072;-87
2022/08/08 05:21:55;;;;;;;9.25;5.40;;;12.80;99.90;;;;;;5050348;28;20044;-82
2022/08/08 05:24:40;;;;;;;8.65;5.75;;;12.80;99.90;;;;;;5054232;28;20052;-81
2022/08/08 05:27:24;;;;;;;14.05;5.57;;;12.90;99.90;;;;;;5054535;28;20091;-82
2022/08/08 05:30:12;;;;;;;6.65;5.25;;;13.10;99.90;;;;;;5050476;28;20156;-82
2022/08/08 05:32:57;;;;;;;9.57;5.75;;;13.20;99.90;;;;;;5049863;28;20455;-82
2022/08/08 05:35:42;;;;;;;10.23;5.82;;;;;;;;;;5054438;28;20409;-83
2022/08/08 05:38:28;;;;;;;11.32;5.53;;;13.40;99.90;;;;;;5048640;28;20446;-83
2022/08/08 05:41:16;;;;;;;9.32;5.22;;;13.50;99.90;;;;;;5053478;28;20059;-83
2022/08/08 05:44:23;;;;;;;9.10;5.18;;;13.60;99.90;;;;;;5051829;28;20099;-82
2022/08/08 05:47:08;;;;;;;6.43;4.28;;;13.70;99.90;;;;;;5050199;28;20114;-82
2022/08/08 05:49:53;;;;;;;10.73;5.10;;;13.80;99.90;;;;;;5055130;28;20097;-82
2022/08/08 05:52:37;;;;;;;10.45;4.95;;;13.90;99.90;;;;;;5050765;28;20405;-83
2022/08/08 05:55:22;;;;;;;10.05;4.80;;;14.40;99.90;;;;;;5050732;28;20040;-83
2022/08/08 05:58:07;;;;;;;10.00;5.00;;;14.20;99.90;;;;;;5054424;28;20571;-82
2022/08/08 06:00:54;;;;;;;10.07;4.35;;;14.30;99.90;;;;;;5055176;28;20040;-82
2022/08/08 06:03:42;;;;;;;10.27;4.43;;;14.50;99.90;;;;;;5050715;28;20047;-82
2022/08/08 06:06:29;;;;;;;11.23;4.20;;;14.60;99.90;;;;;;5052328;28;20159;-82
2022/08/08 06:09:15;;;;;;;8.93;3.83;;;14.70;99.90;;;;;;5045084;28;20091;-82
2022/08/08 06:12:01;;;;;;;8.15;4.30;;;14.90;99.90;;;;;;5045410;28;20052;-83
2022/08/08 06:14:46;;;;;;;7.50;4.40;;;15.10;99.90;;;;;;5048098;28;20082;-83
2022/08/08 06:17:33;;;;;;;8.93;3.65;;;15.40;99.90;;;;;;5052012;28;20087;-84
2022/08/08 06:20:17;;;;;;;10.40;3.78;;;15.70;99.90;;;;;;5052130;28;20052;-85
2022/08/08 06:23:01;;;;;;;6.82;3.05;;;16.00;99.90;;;;;;5051321;28;20098;-84
2022/08/08 06:25:54;;;;;;;9.25;2.80;;;16.30;99.90;;;;;;5050116;28;20892;-83
2022/08/08 06:29:01;;;;;;;10.70;2.60;;;16.70;99.90;;;;;;5053962;28;20094;-84
2022/08/08 06:31:47;;;;;;;8.48;2.50;;;17.00;99.90;;;;;;5044531;28;20620;-83
2022/08/08 06:34:36;;;;;;;8.90;2.97;;;17.60;99.90;;;;;;5053163;28;20051;-86
2022/08/08 06:37:26;;;;;;;7.70;3.28;;;17.60;99.90;;;;;;5053949;28;20039;-81
2022/08/08 06:40:14;;;;;;;6.72;2.75;;;17.90;99.90;;;;;;5044275;28;20178;-86
2022/08/08 06:43:07;;;;;;;5.97;2.53;;;18.20;99.90;;;;;;5050426;28;20044;-84
2022/08/08 06:45:51;;;;;;;4.85;1.85;;;18.40;99.90;;;;;;5048955;28;20075;-84
2022/08/08 06:48:36;;;;;;;7.90;2.22;;;18.60;99.90;;;;;;5046442;28;20082;-83
2022/08/08 06:51:21;;;;;;;6.32;2.03;;;18.80;99.90;;;;;;5048614;28;20035;-86
2022/08/08 06:54:08;;;;;;;9.35;2.22;;;19.00;99.90;;;;;;5038395;28;20044;-86
2022/08/08 06:56:53;;;;;;;7.90;2.10;;;19.00;99.90;;;;;;5046896;28;20044;-87
2022/08/08 06:59:37;;;;;;;5.53;2.08;;;19.20;99.90;;;;;;5051740;28;20052;-87
2022/08/08 07:02:27;;;;;;;5.05;1.98;;;19.30;99.90;;;;;;5050469;28;20036;-86
2022/08/08 07:05:18;;;;;;;4.47;1.98;;;19.40;99.90;;;;;;5054585;28;20067;-87
2022/08/08 07:08:16;;;;;;;5.32;1.65;;;19.50;99.90;;;;;;5048383;28;20091;-84
2022/08/08 07:11:03;;;;;;;8.43;2.15;;;19.40;99.90;;;;;;5052652;28;20136;-84
2022/08/08 07:13:52;;;;;;;6.32;2.05;;;19.50;99.90;;;;;;5049319;28;20409;-83
2022/08/08 07:16:48;;;;;;;7.22;2.15;;;19.60;99.90;;;;;;5051174;28;20167;-86
2022/08/08 07:19:46;;;;;;;4.38;1.80;;;19.60;99.90;;;;;;5051149;28;20039;-89
2022/08/08 07:22:56;;;;;;;7.68;2.10;;;19.50;99.90;;;;;;5051841;28;20159;-83
2022/08/08 07:25:44;;;;;;;8.20;2.40;;;19.50;99.90;;;;;;5050435;28;20496;-86
2022/08/08 07:28:28;;;;;;;8.40;2.00;;;19.60;99.90;;;;;;5049968;28;20108;-85
2022/08/08 07:31:14;;;;;;;7.13;2.47;;;20.10;99.90;;;;;;5050818;28;20166;-87
2022/08/08 07:33:59;;;;;;;6.35;2.58;;;20.50;99.90;;;;;;5048542;28;20155;-86
2022/08/08 07:36:47;;;;;;;9.10;2.20;;;20.80;99.90;;;;;;5049777;28;20036;-87
2022/08/08 07:39:32;;;;;;;4.53;2.25;;;21.00;99.90;;;;;;5050761;28;20059;-86
2022/08/08 07:42:19;;;;;;;11.52;2.28;;;21.10;99.90;;;;;;5051787;28;20064;-86
2022/08/08 07:45:04;;;;;;;8.85;2.08;;;21.10;99.90;;;;;;5049283;28;20032;-87
2022/08/08 07:47:48;;;;;;;7.60;1.88;;;21.00;99.90;;;;;;5048769;28;20047;-87
2022/08/08 07:50:33;;;;;;;5.93;2.20;;;21.00;99.90;;;;;;5048209;28;20056;-86
2022/08/08 07:53:27;;;;;;;6.95;2.15;;;21.30;99.90;;;;;;5048587;28;20098;-86
2022/08/08 07:56:13;;;;;;;;;;;21.40;99.90;;;;;;5048972;28;20036;-86
2022/08/08 07:58:57;;;;;;;8.48;1.85;;;21.40;99.90;;;;;;5052012;28;19918;-86
2022/08/08 08:01:56;;;;;;;4.13;1.58;;;21.60;99.90;;;;;;5050619;28;20055;-87
2022/08/08 08:04:44;;;;;;;4.57;1.55;;;21.60;99.90;;;;;;5047214;28;20040;-87
2022/08/08 08:07:33;;;;;;;5.47;1.58;;;21.50;99.90;;;;;;5051644;28;20538;-88
2022/08/08 08:10:18;;;;;;;6.28;1.50;;;21.50;99.90;;;;;;5060552;28;20067;-86
2022/08/08 08:13:22;;;;;;;6.35;1.70;;;21.80;99.90;;;;;;5050302;28;20075;-87
2022/08/08 08:16:10;;;;;;;7.00;1.88;;;22.00;99.90;;;;;;5050735;28;20044;-88
2022/08/08 08:18:56;;;;;;;4.40;1.45;;;22.00;99.90;;;;;;5042849;28;20614;-87
2022/08/08 08:21:43;;;;;;;5.25;1.92;;;21.90;99.90;;;;;;5047045;28;20036;-90
2022/08/08 08:24:28;;;;;;;3.85;1.40;;;21.80;99.90;;;;;;5051765;28;20040;-86
2022/08/08 08:27:11;;;;;;;3.90;1.20;;;21.70;99.90;;;;;;5051744;28;20040;-86
2022/08/08 08:29:56;;;;;;;4.90;1.98;;;21.50;99.90;;;;;;5051425;28;20043;-87
2022/08/08 08:32:41;;;;;;;6.05;1.75;;;21.50;99.90;;;;;;5064483;28;20539;-87
2022/08/08 08:35:27;;;;;;;7.68;1.88;;;21.80;99.90;;;;;;5049985;28;20063;-88
2022/08/08 08:38:12;;;;;;;4.07;1.40;;;22.20;99.90;;;;;;5040051;28;20064;-87
2022/08/08 08:40:57;;;;;;;5.55;1.30;;;22.50;99.90;;;;;;5050921;28;20055;-85
2022/08/08 08:43:42;;;;;;;4.93;1.45;;;22.90;99.90;;;;;;5062327;28;20472;-87
2022/08/08 08:46:26;;;;;;;5.53;1.75;;;22.90;99.90;;;;;;5050646;28;20573;-87
2022/08/08 08:49:11;;;;;;;5.25;1.55;;;22.90;99.90;;;;;;5051420;28;20543;-89
2022/08/08 08:52:00;;;;;;;6.65;1.80;;;23.10;99.90;;;;;;5050103;28;20036;-88
2022/08/08 08:54:46;;;;;;;5.25;1.50;;;23.30;99.90;;;;;;5048765;28;20472;-88
2022/08/08 08:57:32;;;;;;;4.30;1.33;;;23.50;99.90;;;;;;5051184;28;20044;-85
2022/08/08 09:00:16;;;;;;;3.53;1.00;;;23.70;99.40;;;;;;5050421;28;20060;-85
2022/08/08 09:03:06;;;;;;;2.47;1.05;;;23.60;96.50;;;;;;5049980;28;20052;-88
2022/08/08 09:05:52;;;;;;;3.30;1.10;;;23.50;95.00;;;;;;5050809;28;20040;-88
2022/08/08 09:08:43;;;;;;;4.18;1.23;;;23.60;96.20;;;;;;5047953;28;20401;-89
2022/08/08 09:11:31;;;;;;;4.07;1.40;;;23.60;95.90;;;;;;5048503;28;20091;-88
2022/08/08 09:14:21;;;;;;;2.67;1.20;;;24.00;96.60;;;;;;5051081;28;20401;-89
2022/08/08 09:17:05;;;;;;;8.30;1.40;;;;;;;;;;5049123;28;20559;-87
2022/08/08 09:19:58;;;;;;;4.82;1.13;;;24.30;95.00;;;;;;5050861;28;20056;-88
2022/08/08 09:22:43;;;;;;;3.77;1.10;;;24.20;94.30;;;;;;5050775;28;20574;-88
2022/08/08 09:25:28;;;;;;;4.47;1.25;;;;;;;;;;5050034;28;20104;-87
2022/08/08 09:28:12;;;;;;;2.58;1.10;;;;;;;;;;5048756;28;20472;-88
2022/08/08 09:30:57;;;;;;;2.80;1.10;;;;;;;;;;5048234;28;20554;-88
2022/08/08 09:33:44;;;;;;;3.35;1.10;;;23.90;92.70;;;;;;5033070;28;20044;-86
2022/08/08 09:36:29;;;;;;;2.30;0.98;;;;;;;;;;5048522;28;20032;-87
2022/08/08 09:39:22;;;;;;;3.05;0.90;;;24.50;93.00;;;;;;5050009;28;20408;-88
2022/08/08 09:42:12;;;;;;;3.65;0.93;;;24.60;92.30;;;;;;5050269;28;20044;-88
2022/08/08 09:45:03;;;;;;;4.35;1.10;;;24.80;91.50;;;;;;5049280;28;20090;-88
2022/08/08 09:47:48;;;;;;;3.05;0.95;;;24.80;90.50;;;;;;5050712;28;20496;-88
2022/08/08 09:50:33;;;;;;;2.13;0.90;;;24.70;90.10;;;;;;5053791;28;20409;-88
2022/08/08 09:53:23;;;;;;;2.60;0.88;;;24.30;90.10;;;;;;5053801;28;20052;-87
2022/08/08 09:56:11;;;;;;;4.07;1.10;;;23.70;91.10;;;;;;5048421;28;20044;-87
2022/08/08 09:59:03;;;;;;;4.82;1.00;;;23.70;91.20;;;;;;5054263;28;20052;-87
2022/08/08 10:01:51;;;;;;;3.70;1.38;;;23.40;91.70;;;;;;5054280;28;20497;-88
2022/08/08 10:04:37;;;;;;;4.38;1.02;;;23.20;92.10;;;;;;5054346;28;20036;-88
2022/08/08 10:07:22;;;;;;;3.30;0.88;;;23.00;92.10;;;;;;5053343;28;20401;-88
2022/08/08 10:10:06;;;;;;;3.30;1.45;;;22.90;92.50;;;;;;5053943;28;20114;-88
2022/08/08 10:12:50;;;;;;;4.50;1.50;;;22.80;93.60;;;;;;5054296;28;20052;-89
2022/08/08 10:15:36;;;;;;;3.67;1.27;;;22.60;93.90;;;;;;5054346;28;20040;-88
2022/08/08 10:18:30;;;;;;;2.78;1.13;;;22.60;93.40;;;;;;5050093;28;20060;-88
2022/08/08 10:21:17;;;;;;;2.38;0.90;;;22.50;93.10;;;;;;5052575;28;20040;-88
2022/08/08 10:24:07;;;;;;;3.55;0.95;;;22.40;93.40;;;;;;5052653;28;20090;-87
2022/08/08 10:26:57;;;;;;;4.60;1.17;;;22.40;93.90;;;;;;5054448;28;20036;-89
2022/08/08 10:29:53;;;;;;;2.58;1.00;;;22.20;95.10;;;;;;5053404;28;20070;-89
2022/08/08 10:32:40;;;;;;;3.95;0.95;;;22.50;94.80;;;;;;5053352;28;20051;-88
2022/08/08 10:35:27;;;;;;;5.30;1.15;;;22.50;94.30;;;;;;5052815;28;20120;-88
2022/08/08 10:38:15;;;;;;;3.55;1.00;;;22.50;94.10;;;;;;5053653;28;20091;-88
2022/08/08 10:41:04;;;;;;;2.20;0.80;;;22.60;95.60;;;;;;5053970;28;20086;-88
2022/08/08 10:43:50;;;;;;;4.60;0.93;;;22.80;93.60;;;;;;5054195;28;20044;-88
2022/08/08 10:46:35;;;;;;;1.95;0.93;;;22.80;93.90;;;;;;5054107;28;20493;-88
2022/08/08 10:49:19;;;;;;;3.38;1.00;;;22.90;93.50;;;;;;5052185;28;20082;-88
2022/08/08 10:52:04;;;;;;;4.18;1.02;;;23.00;93.80;;;;;;5054442;28;20055;-85
2022/08/08 10:55:12;;;;;;;6.32;1.08;;;23.20;93.20;;;;;;5067650;28;20095;-94
2022/08/08 10:58:03;;;;;;;3.55;1.10;;;23.60;93.40;;;;;;5053643;28;20051;-87
2022/08/08 11:00:47;;;;;;;2.67;1.05;;;23.70;89.90;;;;;;5052522;28;20040;-87
2022/08/08 11:03:41;;;;;;;3.13;1.02;;;23.80;91.20;;;;;;5051459;28;20381;-87
2022/08/08 11:06:33;;;;;;;2.13;0.90;;;23.80;91.00;;;;;;5052795;28;20112;-87
2022/08/08 11:09:16;;;;;;;4.65;1.17;;;23.90;91.80;;;;;;5051226;28;20632;-86
2022/08/08 11:12:01;;;;;;;5.22;1.48;;;24.00;92.60;;;;;;5051053;28;20539;-87
2022/08/08 11:14:55;;;;;;;2.95;1.10;;;24.00;91.80;;;;;;5052764;28;20075;-86
2022/08/08 11:17:40;;;;;;;;;;;23.90;91.40;;;;;;5050986;28;20117;-86
2022/08/08 11:20:26;;;;;;;6.15;0.98;;;23.70;89.70;;;;;;5052479;28;20289;-86
2022/08/08 11:23:11;;;;;;;3.08;1.10;;;23.60;91.80;;;;;;5051742;28;20043;-86
2022/08/08 11:25:55;;;;;;;2.95;1.10;;;23.90;93.10;;;;;;5053103;28;20140;-85
2022/08/08 11:28:40;;;;;;;3.58;1.15;;;23.50;93.20;;;;;;5052159;28;20505;-86
2022/08/08 11:31:27;;;;;;;6.53;1.17;;;23.50;93.10;;;;;;5052823;28;20075;-86
2022/08/08 11:34:13;;;;;;;4.70;1.20;;;23.50;92.60;;;;;;5052423;28;20044;-86
2022/08/08 11:36:59;;;;;;;3.40;0.82;;;23.60;92.00;;;;;;5052942;28;20083;-85
2022/08/08 11:39:43;;;;;;;2.55;0.95;;;23.60;92.30;;;;;;5052997;28;20040;-86
2022/08/08 11:42:30;;;;;;;4.93;1.00;;;23.70;92.40;;;;;;5052223;28;20503;-86
2022/08/08 11:45:15;;;;;;;3.42;0.90;;;23.70;92.30;;;;;;5052217;28;20036;-86
2022/08/08 11:48:00;;;;;;;2.85;0.98;;;;;;;;;;5051678;28;20124;-88
2022/08/08 11:50:45;;;;;;;3.88;1.25;;;23.40;92.10;;;;;;5053961;28;20405;-89
2022/08/08 11:53:30;;;;;;;4.40;1.02;;;23.30;93.30;;;;;;5058377;28;20071;-88
2022/08/08 11:56:20;;;;;;;2.95;1.17;;;23.00;94.50;;;;;;5051148;28;20040;-86
2022/08/08 11:59:08;;;;;;;2.10;1.00;;;22.90;94.20;;;;;;5043549;28;20040;-83
2022/08/08 12:02:05;;;;;;;2.28;1.00;;;22.80;94.70;;;;;;5039673;28;20043;-82
2022/08/08 12:05:00;;;;;;;5.93;1.38;;;22.40;95.40;;;;;;5052918;28;20067;-83
2022/08/08 12:07:53;;;;;;;4.93;1.35;;;22.20;97.00;;;;;;5040065;28;20091;-82
2022/08/08 12:10:51;;;;;;;3.83;1.40;;;;;;;;;;5040166;28;20103;-83
2022/08/08 12:13:36;;;;;;;2.90;1.10;;;;;;;;;;5037189;28;20040;-82
2022/08/08 12:16:20;;;;;;;3.35;1.10;;;22.10;97.00;;;;;;5052448;28;20044;-83
2022/08/08 12:19:11;;;;;;;5.97;1.40;;;22.00;96.80;;;;;;5051795;28;20050;-88
2022/08/08 12:22:06;;;;;;;3.20;1.10;;;22.00;97.00;;;;;;5051379;28;20032;-89
2022/08/08 12:24:50;;;;;;;3.83;1.10;;;;;;;;;;5051440;28;20116;-88
2022/08/08 12:27:37;;;;;;;4.75;1.20;;;22.20;98.50;;;;;;5051477;28;20055;-89
2022/08/08 12:30:31;;;;;;;2.40;1.00;;;21.80;98.90;;;;;;5051761;28;20496;-88
2022/08/08 12:33:25;;;;;;;;;;;21.90;98.60;;;;;;5020599;28;20080;-88
2022/08/08 12:36:10;;;;;;;;;;;21.90;99.20;;;;;;5050278;28;19916;-88
2022/08/08 12:38:54;;;;;;;2.78;1.10;;;22.00;99.10;;;;;;5050855;28;20331;-89
2022/08/08 12:41:39;;;;;;;7.38;1.60;;;21.80;99.90;;;;;;5041450;28;20098;-88
2022/08/08 12:44:26;;;;;;;5.13;1.25;;;22.00;98.80;;;;;;5050356;28;20043;-88
2022/08/08 12:47:12;;;;;;;4.53;1.15;;;21.90;98.90;;;;;;5051438;28;20040;-88
2022/08/08 12:49:56;;;;;;;5.72;1.30;;;;;;;;;;5065136;28;20070;-89
2022/08/08 12:52:52;;;;;;;3.83;1.45;;;22.00;97.80;;;;;;5049957;28;20642;-88
2022/08/08 12:55:37;;;;;;;6.15;1.50;;;;;;;;;;5049212;28;20032;-86
2022/08/08 12:58:23;;;;;;;4.53;1.40;;;21.90;99.70;;;;;;5051607;28;20036;-87
2022/08/08 13:01:09;;;;;;;4.53;1.23;;;22.00;98.70;;;;;;5045240;28;20044;-86
2022/08/08 13:03:53;;;;;;;3.72;1.23;;;22.00;98.70;;;;;;5033320;28;20057;-87
2022/08/08 13:06:38;;;;;;;4.03;1.42;;;;;;;;;;5051135;28;20564;-88
2022/08/08 13:09:58;;;;;;;4.88;1.23;;;22.70;98.80;;;;;;5051620;28;20048;-86
2022/08/08 13:12:46;;;;;;;2.88;1.00;;;22.20;98.70;;;;;;5033462;28;20057;-88
2022/08/08 13:15:30;;;;;;;5.05;1.13;;;22.30;98.20;;;;;;5024456;28;20113;-88
2022/08/08 13:18:14;;;;;;;3.45;1.20;;;22.30;99.20;;;;;;5026104;28;20116;-86
2022/08/08 13:20:58;;;;;;;2.47;1.00;;;22.30;98.90;;;;;;5026905;28;20040;-84
2022/08/08 13:23:43;;;;;;;2.40;1.17;;;22.30;99.20;;;;;;5033892;28;20056;-84
2022/08/08 13:26:33;;;;;;;3.90;1.20;;;22.30;98.50;;;;;;5033574;28;20044;-87
2022/08/08 13:29:17;;;;;;;3.22;0.90;;;22.30;98.70;;;;;;5035358;28;20072;-83
2022/08/08 13:32:03;;;;;;;3.42;1.15;;;22.20;97.80;;;;;;5034262;28;20064;-87
2022/08/08 13:34:53;;;;;;;5.47;1.38;;;22.90;98.60;;;;;;5034386;28;20724;-88
2022/08/08 13:37:39;;;;;;;4.63;1.38;;;22.10;98.40;;;;;;5034101;28;20036;-83
2022/08/08 13:40:23;;;;;;;2.78;1.15;;;22.10;98.50;;;;;;5031723;28;20405;-83
2022/08/08 13:43:08;;;;;;;3.90;1.20;;;22.10;98.20;;;;;;5032398;28;20036;-87
2022/08/08 13:45:52;;;;;;;3.15;1.23;;;22.00;98.70;;;;;;5034318;28;20040;-84
2022/08/08 13:48:47;;;;;;;3.97;1.08;;;22.00;98.60;;;;;;5034499;28;20040;-85
2022/08/08 13:51:32;;;;;;;3.88;1.30;;;;;;;;;;5032613;28;20508;-88
2022/08/08 13:54:23;;;;;;;2.97;1.35;;;22.30;98.70;;;;;;5029093;28;20448;-85
2022/08/08 13:57:09;;;;;;;5.22;1.48;;;22.00;98.80;;;;;;5034834;28;20425;-84
2022/08/08 14:00:10;;;;;;;4.30;1.10;;;22.00;98.60;;;;;;5033376;28;20048;-85
2022/08/08 14:03:01;;;;;;;2.95;1.00;;;22.10;98.30;;;;;;5033258;28;20048;-84
2022/08/08 14:05:45;;;;;;;4.65;1.55;;;22.10;99.10;;;;;;5024720;28;20041;-85
2022/08/08 14:08:29;;;;;;;2.60;1.20;;;22.10;98.30;;;;;;5033919;28;20453;-82
2022/08/08 14:11:25;;;;;;;5.03;1.10;;;22.10;98.80;;;;;;5046341;28;20488;-86
2022/08/08 14:14:10;;;;;;;3.80;1.30;;;;;;;;;;5054321;28;20416;-87
2022/08/08 14:16:54;;;;;;;4.40;1.40;;;22.10;99.20;;;;;;5053698;28;20040;-87
2022/08/08 14:19:43;;;;;;;2.75;1.10;;;22.30;99.30;;;;;;5053754;28;20154;-87
2022/08/08 14:22:27;;;;;;;2.95;1.00;;;22.20;99.30;;;;;;5051406;28;20048;-87
2022/08/08 14:25:12;;;;;;;2.97;1.30;;;;;;;;;;5054686;28;20539;-90
2022/08/08 14:28:07;;;;;;;3.45;1.20;;;22.40;98.60;;;;;;5052789;28;20098;-90
2022/08/08 14:30:53;;;;;;;3.28;1.15;;;22.20;98.40;;;;;;5053410;28;20082;-91
2022/08/08 14:33:38;;;;;;;4.75;1.38;;;22.10;98.90;;;;;;5053123;28;20103;-88
2022/08/08 14:36:36;;;;;;;3.88;1.30;;;22.10;98.70;;;;;;5054282;28;20044;-90
2022/08/08 14:39:20;;;;;;;2.97;1.10;;;22.10;99.30;;;;;;5053997;28;20063;-90
2022/08/08 14:42:04;;;;;;;2.38;1.00;;;22.10;99.50;;;;;;5054146;28;20047;-89
2022/08/08 14:44:56;;;;;;;5.43;1.40;;;22.00;99.40;;;;;;5052018;28;20500;-89
2022/08/08 14:47:49;;;;;;;4.28;1.20;;;22.00;99.20;;;;;;5049000;28;20056;-87
2022/08/08 14:50:34;;;;;;;6.47;1.40;;;22.00;99.40;;;;;;5052266;28;20078;-88
2022/08/08 14:53:22;;;;;;;3.35;1.13;;;;;;;;;;5049492;28;20047;-89
2022/08/08 14:56:07;;;;;;;2.85;1.00;;;22.10;99.60;;;;;;5048324;28;20039;-90
2022/08/08 14:58:52;;;;;;;2.63;1.10;;;22.10;99.60;;;;;;5051276;28;20044;-90
2022/08/08 15:01:36;;;;;;;4.50;1.50;;;;;;;;;;5053507;28;20095;-90
2022/08/08 15:04:21;;;;;;;5.75;1.50;;;22.30;99.30;;;;;;5037966;28;20672;-89
2022/08/08 15:07:07;;;;;;;3.40;1.13;;;22.40;99.60;;;;;;5052064;28;20393;-89